createdAt,value
2023-09-06T00:01:26.432Z,100843.72
2023-09-06T00:03:57.334Z,100833.63
2023-09-06T00:06:29.343Z,100849.19
2023-09-06T00:08:57.577Z,100849.09
2023-09-06T00:11:26.505Z,100836.00
2023-09-06T00:13:54.735Z,100834.28
2023-09-06T00:16:22.922Z,100843.94
2023-09-06T00:18:51.638Z,100835.72
2023-09-06T00:21:19.649Z,100839.25
2023-09-06T00:23:50.853Z,100840.31
2023-09-06T00:26:19.296Z,100835.25
2023-09-06T00:28:48.321Z,100839.88
2023-09-06T00:31:16.374Z,100834.63
2023-09-06T00:33:45.655Z,100826.94
2023-09-06T00:36:13.721Z,100832.16
2023-09-06T00:38:41.811Z,100823.50
2023-09-06T00:41:12.613Z,100833.00
2023-09-06T00:43:40.518Z,100817.38
2023-09-06T00:46:09.204Z,100839.88
2023-09-06T00:48:39.026Z,100830.13
2023-09-06T00:51:08.537Z,100825.94
2023-09-06T00:53:38.367Z,100822.84
2023-09-06T00:56:10.327Z,100824.66
2023-09-06T00:58:40.742Z,100815.31
2023-09-06T01:01:09.194Z,100809.19
2023-09-06T01:03:44.703Z,100819.72
2023-09-06T01:06:20.142Z,100810.19
2023-09-06T01:08:53.311Z,100795.69
2023-09-06T01:11:24.256Z,100811.34
2023-09-06T01:13:55.441Z,100805.66
2023-09-06T01:16:30.835Z,100819.28
2023-09-06T01:18:59.529Z,100816.44
2023-09-06T01:21:36.103Z,100821.59
2023-09-06T01:24:07.510Z,100829.44
2023-09-06T01:26:36.633Z,100821.19
2023-09-06T01:29:05.223Z,100808.31
2023-09-06T01:31:33.444Z,100821.59
2023-09-06T01:34:01.585Z,100812.16
2023-09-06T01:36:31.891Z,100807.75
2023-09-06T01:39:01.067Z,100813.75
2023-09-06T01:41:31.227Z,100804.66
2023-09-06T01:44:01.498Z,100797.59
2023-09-06T01:46:29.633Z,100818.13
2023-09-06T01:49:00.561Z,100804.81
2023-09-06T01:51:29.167Z,100804.94
2023-09-06T01:53:58.272Z,100791.38
2023-09-06T01:56:26.607Z,100808.47
2023-09-06T01:58:56.262Z,100805.88
2023-09-06T02:01:24.609Z,100800.94
2023-09-06T02:03:52.996Z,100792.25
2023-09-06T02:06:21.671Z,100790.84
2023-09-06T02:08:50.587Z,100801.97
2023-09-06T02:11:20.435Z,100806.72
2023-09-06T02:13:48.737Z,100800.16
2023-09-06T02:16:20.154Z,100802.22
2023-09-06T02:18:48.585Z,100809.38
2023-09-06T02:21:16.544Z,100808.91
2023-09-06T02:23:44.237Z,100812.22
2023-09-06T02:26:13.428Z,100810.09
2023-09-06T02:28:41.338Z,100810.19
2023-09-06T02:31:09.556Z,100820.88
2023-09-06T02:33:41.145Z,100818.53
2023-09-06T02:36:08.787Z,100823.00
2023-09-06T02:38:36.635Z,100820.44
2023-09-06T02:41:04.693Z,100820.63
2023-09-06T02:43:32.787Z,100815.47
2023-09-06T02:46:04.695Z,100813.19
2023-09-06T02:48:34.838Z,100817.78
2023-09-06T02:51:06.088Z,100815.31
2023-09-06T02:53:34.834Z,100825.06
2023-09-06T02:56:03.088Z,100827.91
2023-09-06T02:58:32.937Z,100835.06
2023-09-06T03:01:07.393Z,100831.53
2023-09-06T03:03:35.863Z,100820.00
2023-09-06T03:06:06.214Z,100821.81
2023-09-06T03:08:38.182Z,100817.31
2023-09-06T03:11:08.818Z,100816.66
2023-09-06T03:13:38.135Z,100814.06
2023-09-06T03:16:06.941Z,100812.25
2023-09-06T03:18:34.930Z,100815.25
2023-09-06T03:21:06.158Z,100821.31
2023-09-06T03:23:36.177Z,100814.38
2023-09-06T03:26:10.533Z,100826.38
2023-09-06T03:28:42.986Z,100815.34
2023-09-06T03:31:16.883Z,100825.63
2023-09-06T03:33:46.238Z,100807.78
2023-09-06T03:36:16.004Z,100824.84
2023-09-06T03:38:48.304Z,100831.19
2023-09-06T03:41:17.898Z,100829.47
2023-09-06T03:43:47.182Z,100829.66
2023-09-06T03:46:16.098Z,100830.03
2023-09-06T03:48:47.137Z,100827.00
2023-09-06T03:51:15.786Z,100828.72
2023-09-06T03:53:45.677Z,100840.25
2023-09-06T03:56:13.677Z,100838.53
2023-09-06T03:58:45.344Z,100810.31
2023-09-06T04:01:16.849Z,100835.19
2023-09-06T04:03:47.703Z,100839.88
2023-09-06T04:06:18.801Z,100841.00
2023-09-06T04:08:49.525Z,100839.00
2023-09-06T04:11:18.534Z,100839.19
2023-09-06T04:13:46.711Z,100842.63
2023-09-06T04:16:18.219Z,100830.81
2023-09-06T04:18:48.553Z,100850.91
2023-09-06T04:21:17.530Z,100844.16
2023-09-06T04:23:48.036Z,100827.16
2023-09-06T04:26:21.405Z,100847.09
2023-09-06T04:28:50.304Z,100849.94
2023-09-06T04:31:20.792Z,100855.59
2023-09-06T04:33:50.106Z,100849.72
2023-09-06T04:36:27.458Z,100851.59
2023-09-06T04:39:05.232Z,100852.72
2023-09-06T04:41:38.010Z,100853.59
2023-09-06T04:44:08.608Z,100832.97
2023-09-06T04:46:37.306Z,100850.53
2023-09-06T04:49:06.091Z,100861.69
2023-09-06T04:51:35.317Z,100836.78
2023-09-06T04:54:10.791Z,100863.59
2023-09-06T04:56:41.644Z,100860.09
2023-09-06T04:59:11.111Z,100792.47
2023-09-06T05:01:39.271Z,100864.56
2023-09-06T05:04:07.835Z,100869.69
2023-09-06T05:06:37.778Z,100872.09
2023-09-06T05:09:11.698Z,100864.09
2023-09-06T05:11:39.757Z,100878.63
2023-09-06T05:14:08.180Z,100878.19
2023-09-06T05:16:37.319Z,100880.75
2023-09-06T05:19:05.446Z,100885.81
2023-09-06T05:21:37.382Z,100881.44
2023-09-06T05:24:08.366Z,100882.31
2023-09-06T05:26:36.487Z,100896.03
2023-09-06T05:29:06.011Z,100886.22
2023-09-06T05:31:36.095Z,100893.78
2023-09-06T05:34:04.749Z,100894.50
2023-09-06T05:36:32.631Z,100887.25
2023-09-06T05:39:00.939Z,100889.94
2023-09-06T05:41:33.087Z,100885.53
2023-09-06T05:44:03.710Z,100872.59
2023-09-06T05:46:34.112Z,100883.56
2023-09-06T05:49:07.320Z,100873.72
2023-09-06T05:51:40.855Z,100885.75
2023-09-06T05:54:10.958Z,100857.13
2023-09-06T05:56:41.817Z,100891.19
2023-09-06T05:59:14.308Z,100896.34
2023-09-06T06:01:43.259Z,100888.13
2023-09-06T06:04:12.854Z,100877.94
2023-09-06T06:06:40.840Z,100893.19
2023-09-06T06:09:12.765Z,100896.53
2023-09-06T06:11:42.524Z,100882.50
2023-09-06T06:14:12.140Z,100902.56
2023-09-06T06:16:41.501Z,100901.97
2023-09-06T06:19:11.774Z,100910.56
2023-09-06T06:21:40.114Z,100899.00
2023-09-06T06:24:10.149Z,100915.88
2023-09-06T06:26:38.048Z,100913.81
2023-09-06T06:29:08.374Z,100893.38
2023-09-06T06:31:36.337Z,100911.75
2023-09-06T06:34:04.387Z,100914.63
2023-09-06T06:36:32.959Z,100918.50
2023-09-06T06:39:01.353Z,100909.66
2023-09-06T06:41:30.178Z,100920.75
2023-09-06T06:43:58.714Z,100909.88
2023-09-06T06:46:30.481Z,100915.09
2023-09-06T06:48:59.257Z,100914.16
2023-09-06T06:51:27.829Z,100918.09
2023-09-06T06:53:55.697Z,100917.88
2023-09-06T06:56:23.566Z,100922.50
2023-09-06T06:58:51.807Z,100916.78
2023-09-06T07:01:20.058Z,100919.38
2023-09-06T07:03:49.566Z,100907.47
2023-09-06T07:06:17.916Z,100915.56
2023-09-06T07:08:45.986Z,100923.69
2023-09-06T07:11:15.121Z,100928.22
2023-09-06T07:13:43.584Z,100926.59
2023-09-06T07:16:12.053Z,100919.28
2023-09-06T07:18:40.024Z,100911.16
2023-09-06T07:21:09.860Z,100915.34
2023-09-06T07:23:38.526Z,100920.56
2023-09-06T07:26:06.997Z,100925.78
2023-09-06T07:28:42.542Z,100896.88
2023-09-06T07:31:11.821Z,100913.03
2023-09-06T07:33:40.512Z,100925.38
2023-09-06T07:36:11.576Z,100925.72
2023-09-06T07:38:40.048Z,100930.47
2023-09-06T07:41:10.318Z,100937.88
2023-09-06T07:43:39.605Z,100947.19
2023-09-06T07:46:12.049Z,100949.06
2023-09-06T07:48:40.585Z,100944.56
2023-09-06T07:51:12.239Z,100944.97
2023-09-06T07:53:41.196Z,100943.78
2023-09-06T07:56:09.762Z,100947.19
2023-09-06T07:58:38.117Z,100955.16
2023-09-06T08:01:17.955Z,100932.50
2023-09-06T08:03:48.562Z,100946.53
2023-09-06T08:06:19.847Z,100946.00
2023-09-06T08:08:47.971Z,100954.84
2023-09-06T08:11:19.691Z,100956.72
2023-09-06T08:13:48.710Z,100950.25
2023-09-06T08:16:17.131Z,100946.88
2023-09-06T08:18:48.250Z,100951.59
2023-09-06T08:21:17.427Z,100945.56
2023-09-06T08:23:46.999Z,100959.53
2023-09-06T08:26:15.063Z,100954.97
2023-09-06T08:28:43.177Z,100954.00
2023-09-06T08:31:12.635Z,100950.81
2023-09-06T08:33:41.248Z,100950.75
2023-09-06T08:36:09.726Z,100954.84
2023-09-06T08:38:37.772Z,100944.00
2023-09-06T08:41:08.956Z,100954.78
2023-09-06T08:43:44.080Z,100957.38
2023-09-06T08:46:20.877Z,100955.44
2023-09-06T08:48:49.889Z,100946.00
2023-09-06T08:51:18.288Z,100954.03
2023-09-06T08:54:00.832Z,100948.25
2023-09-06T08:56:31.249Z,100952.53
2023-09-06T08:59:00.876Z,100908.88
2023-09-06T09:01:31.408Z,100940.50
2023-09-06T09:04:00.710Z,100943.63
2023-09-06T09:06:31.579Z,100938.63
2023-09-06T09:09:15.477Z,100940.78
2023-09-06T09:11:47.420Z,100927.38
2023-09-06T09:14:24.471Z,100934.63
2023-09-06T09:16:56.648Z,100932.78
2023-09-06T09:19:25.400Z,100946.13
2023-09-06T09:21:58.362Z,100932.03
2023-09-06T09:24:28.136Z,100932.19
2023-09-06T09:26:58.673Z,100934.44
2023-09-06T09:29:26.638Z,100924.47
2023-09-06T09:31:54.965Z,100937.69
2023-09-06T09:34:25.849Z,100928.72
2023-09-06T09:36:53.945Z,100877.09
2023-09-06T09:39:28.150Z,100927.09
2023-09-06T09:42:01.188Z,100916.69
2023-09-06T09:44:29.737Z,100919.88
2023-09-06T09:46:58.845Z,100914.47
2023-09-06T09:49:28.294Z,100889.13
2023-09-06T09:52:00.116Z,100918.81
2023-09-06T09:54:34.667Z,100904.28
2023-09-06T09:57:07.946Z,100914.50
2023-09-06T09:59:40.116Z,100909.47
2023-09-06T10:02:09.387Z,100908.13
2023-09-06T10:04:39.494Z,100914.22
2023-09-06T10:07:10.613Z,100905.44
2023-09-06T10:09:41.389Z,100900.97
2023-09-06T10:12:12.791Z,100895.25
2023-09-06T10:14:41.298Z,100898.72
2023-09-06T10:17:09.968Z,100894.41
2023-09-06T10:19:53.733Z,100890.72
2023-09-06T10:22:23.668Z,100896.47
2023-09-06T10:24:54.892Z,100892.16
2023-09-06T10:27:33.669Z,100887.56
2023-09-06T10:30:04.890Z,100893.50
2023-09-06T10:32:43.042Z,100894.03
2023-09-06T10:35:22.335Z,100887.84
2023-09-06T10:38:09.093Z,100886.41
2023-09-06T10:41:11.830Z,100890.84
2023-09-06T10:43:57.396Z,100865.84
2023-09-06T10:46:28.375Z,100880.53
2023-09-06T10:49:36.039Z,100881.28
2023-09-06T10:52:09.489Z,100856.94
2023-09-06T10:54:41.734Z,100874.22
2023-09-06T10:57:12.810Z,100872.56
2023-09-06T10:59:45.043Z,100867.13
2023-09-06T11:02:20.547Z,100863.94
2023-09-06T11:04:50.898Z,100870.41
2023-09-06T11:07:19.092Z,100867.38
2023-09-06T11:09:51.276Z,100847.50
2023-09-06T11:12:21.227Z,100860.22
2023-09-06T11:14:56.759Z,100858.56
2023-09-06T11:17:27.666Z,100863.00
2023-09-06T11:19:56.587Z,100863.25
2023-09-06T11:22:24.583Z,100849.50
2023-09-06T11:24:52.876Z,100852.88
2023-09-06T11:27:22.801Z,100844.06
2023-09-06T11:29:58.790Z,100838.13
2023-09-06T11:32:27.805Z,100843.56
2023-09-06T11:34:57.322Z,100845.94
2023-09-06T11:37:26.859Z,100844.41
2023-09-06T11:39:55.117Z,100838.66
2023-09-06T11:42:27.922Z,100834.22
2023-09-06T11:44:59.573Z,100845.09
2023-09-06T11:47:31.976Z,100835.22
2023-09-06T11:50:03.578Z,100839.31
2023-09-06T11:52:38.602Z,100826.56
2023-09-06T11:55:14.916Z,100818.69
2023-09-06T11:57:47.791Z,100822.25
2023-09-06T12:00:27.034Z,100829.03
2023-09-06T12:02:55.853Z,100819.50
2023-09-06T12:05:38.758Z,100829.34
2023-09-06T12:08:13.537Z,100823.41
2023-09-06T12:10:41.805Z,100812.47
2023-09-06T12:13:11.598Z,100816.50
2023-09-06T12:15:42.038Z,100798.63
2023-09-06T12:18:10.012Z,100789.03
2023-09-06T12:20:38.078Z,100776.66
2023-09-06T12:23:07.065Z,100799.19
2023-09-06T12:25:35.852Z,100800.34
2023-09-06T12:28:05.319Z,100791.66
2023-09-06T12:30:33.534Z,100794.38
2023-09-06T12:33:04.885Z,100785.94
2023-09-06T12:35:37.113Z,100779.75
2023-09-06T12:38:07.380Z,100786.34
2023-09-06T12:40:35.980Z,100771.56
2023-09-06T12:43:05.625Z,100777.16
2023-09-06T12:45:35.064Z,100769.97
2023-09-06T12:48:07.106Z,100778.59
2023-09-06T12:50:35.935Z,100761.63
2023-09-06T12:53:06.639Z,100770.22
2023-09-06T12:55:34.867Z,100759.03
2023-09-06T12:58:05.095Z,100759.31
2023-09-06T13:00:33.637Z,100742.34
2023-09-06T13:03:03.049Z,100754.97
2023-09-06T13:05:33.728Z,100750.53
2023-09-06T13:08:04.791Z,100751.56
2023-09-06T13:10:33.105Z,100748.38
2023-09-06T13:13:02.730Z,100742.03
2023-09-06T13:15:30.818Z,100754.91
2023-09-06T13:17:58.859Z,100753.00
2023-09-06T13:20:27.504Z,100744.47
2023-09-06T13:22:58.312Z,100753.69
2023-09-06T13:25:27.805Z,100745.41
2023-09-06T13:27:55.883Z,100751.50
2023-09-06T13:30:24.205Z,100738.81
2023-09-06T13:32:52.350Z,100739.53
2023-09-06T13:35:20.117Z,100732.88
2023-09-06T13:37:48.085Z,100722.44
2023-09-06T13:40:18.658Z,100721.41
2023-09-06T13:42:46.523Z,100726.59
2023-09-06T13:45:16.365Z,100714.97
2023-09-06T13:47:44.728Z,100714.03
2023-09-06T13:50:12.831Z,100709.34
2023-09-06T13:52:41.360Z,100710.00
2023-09-06T13:55:09.826Z,100699.13
2023-09-06T13:57:39.952Z,100712.75
2023-09-06T14:00:12.981Z,100705.94
2023-09-06T14:02:41.522Z,100714.81
2023-09-06T14:05:10.501Z,100711.91
2023-09-06T14:07:38.310Z,100719.50
2023-09-06T14:10:06.877Z,100707.56
2023-09-06T14:12:35.323Z,100701.72
2023-09-06T14:15:05.498Z,100693.47
2023-09-06T14:17:33.472Z,100708.03
2023-09-06T14:20:01.332Z,100709.25
2023-09-06T14:22:29.581Z,100698.63
2023-09-06T14:24:57.340Z,100685.06
2023-09-06T14:27:28.331Z,100699.19
2023-09-06T14:29:58.794Z,100699.66
2023-09-06T14:32:28.658Z,100699.47
2023-09-06T14:34:56.822Z,100696.38
2023-09-06T14:37:25.181Z,100682.81
2023-09-06T14:39:53.040Z,100691.47
2023-09-06T14:42:20.923Z,100695.41
2023-09-06T14:44:51.625Z,100685.53
2023-09-06T14:47:22.168Z,100691.19
2023-09-06T14:49:53.187Z,100686.50
2023-09-06T14:52:28.452Z,100691.94
2023-09-06T14:54:58.086Z,100687.84
2023-09-06T14:57:26.551Z,100684.84
2023-09-06T14:59:55.177Z,100680.88
2023-09-06T15:02:27.244Z,100684.84
2023-09-06T15:05:06.161Z,100688.78
2023-09-06T15:07:35.292Z,100678.81
2023-09-06T15:10:05.407Z,100684.56
2023-09-06T15:12:33.737Z,100683.91
2023-09-06T15:15:02.646Z,100679.66
2023-09-06T15:17:31.892Z,100669.59
2023-09-06T15:20:00.438Z,100670.34
2023-09-06T15:22:38.661Z,100669.31
2023-09-06T15:25:08.244Z,100673.44
2023-09-06T15:27:37.117Z,100661.94
2023-09-06T15:30:06.628Z,100668.59
2023-09-06T15:32:35.971Z,100661.66
2023-09-06T15:35:06.711Z,100667.84
2023-09-06T15:37:37.158Z,100666.66
2023-09-06T15:40:06.896Z,100668.22
2023-09-06T15:42:35.107Z,100668.56
2023-09-06T15:45:09.536Z,100656.69
2023-09-06T15:47:41.882Z,100672.69
2023-09-06T15:50:11.800Z,100665.97
2023-09-06T15:52:41.168Z,100669.72
2023-09-06T15:55:11.139Z,100673.19
2023-09-06T15:57:40.394Z,100659.44
2023-09-06T16:02:46.303Z,100657.41
2023-09-06T16:05:14.375Z,100663.44
2023-09-06T16:07:45.889Z,100661.25
2023-09-06T16:10:16.746Z,100657.00
2023-09-06T16:12:48.992Z,100653.25
2023-09-06T16:15:20.526Z,100660.00
2023-09-06T16:17:50.234Z,100659.28
2023-09-06T16:20:21.947Z,100657.19
2023-09-06T16:22:53.768Z,100608.63
2023-09-06T16:25:21.826Z,100624.28
2023-09-06T16:27:50.192Z,100657.91
2023-09-06T16:30:19.354Z,100654.03
2023-09-06T16:32:50.001Z,100630.00
2023-09-06T16:35:18.334Z,100658.03
2023-09-06T16:37:49.874Z,100646.34
2023-09-06T16:40:22.024Z,100650.59
2023-09-06T16:42:52.255Z,100661.66
2023-09-06T16:45:20.828Z,100650.59
2023-09-06T16:47:51.500Z,100641.25
2023-09-06T16:50:20.954Z,100645.69
2023-09-06T16:52:51.858Z,100651.47
2023-09-06T16:55:21.464Z,100644.19
2023-09-06T16:57:52.517Z,100648.97
2023-09-06T17:00:22.842Z,100651.53
2023-09-06T17:02:53.858Z,100646.16
2023-09-06T17:05:23.087Z,100649.56
2023-09-06T17:07:52.741Z,100652.47
2023-09-06T17:10:23.543Z,100646.19
2023-09-06T17:12:53.266Z,100651.63
2023-09-06T17:15:23.194Z,100636.88
2023-09-06T17:17:51.841Z,100647.56
2023-09-06T17:20:23.012Z,100639.78
2023-09-06T17:22:52.482Z,100644.19
2023-09-06T17:25:22.478Z,100644.56
2023-09-06T17:27:50.692Z,100653.06
2023-09-06T17:30:22.128Z,100634.06
2023-09-06T17:33:04.174Z,100650.03
2023-09-06T17:35:34.729Z,100636.09
2023-09-06T17:38:06.939Z,100651.22
2023-09-06T17:40:36.649Z,100646.97
2023-09-06T17:43:05.073Z,100651.56
2023-09-06T17:45:35.602Z,100648.66
2023-09-06T17:48:11.331Z,100652.06
2023-09-06T17:50:42.362Z,100648.31
2023-09-06T17:53:11.684Z,100655.56
2023-09-06T17:55:42.595Z,100652.66
2023-09-06T17:58:10.414Z,100661.44
2023-09-06T18:00:42.690Z,100651.22
2023-09-06T18:03:15.557Z,100663.91
2023-09-06T18:05:46.279Z,100669.78
2023-09-06T18:08:16.539Z,100665.66
2023-09-06T18:10:45.876Z,100667.78
2023-09-06T18:13:15.603Z,100681.09
2023-09-06T18:15:43.769Z,100675.63
2023-09-06T18:18:14.508Z,100684.72
2023-09-06T18:20:44.200Z,100674.09
2023-09-06T18:23:12.497Z,100677.16
2023-09-06T18:25:41.619Z,100682.34
2023-09-06T18:28:11.709Z,100680.41
2023-09-06T18:30:40.017Z,100687.00
2023-09-06T18:33:08.676Z,100662.63
2023-09-06T18:35:36.678Z,100684.84
2023-09-06T18:38:05.121Z,100685.59
2023-09-06T18:40:33.496Z,100690.94
2023-09-06T18:43:02.524Z,100691.72
2023-09-06T18:45:32.739Z,100680.88
2023-09-06T18:48:00.807Z,100701.22
2023-09-06T18:50:31.678Z,100692.28
2023-09-06T18:52:59.679Z,100698.44
2023-09-06T18:55:27.506Z,100690.28
2023-09-06T18:58:05.578Z,100694.22
2023-09-06T19:00:37.615Z,100700.53
2023-09-06T19:03:07.399Z,100713.22
2023-09-06T19:05:36.719Z,100711.72
2023-09-06T19:08:05.110Z,100715.56
2023-09-06T19:10:34.818Z,100717.41
2023-09-06T19:13:02.604Z,100711.63
2023-09-06T19:15:30.608Z,100712.34
2023-09-06T19:18:00.224Z,100724.88
2023-09-06T19:20:28.265Z,100723.19
2023-09-06T19:22:55.927Z,100732.44
2023-09-06T19:25:25.487Z,100730.25
2023-09-06T19:27:54.753Z,100727.41
2023-09-06T19:30:22.875Z,100714.34
2023-09-06T19:32:50.970Z,100728.84
2023-09-06T19:35:20.987Z,100720.28
2023-09-06T19:37:49.100Z,100726.81
2023-09-06T19:40:16.998Z,100731.03
2023-09-06T19:42:44.821Z,100724.06
2023-09-06T19:45:15.595Z,100723.06
2023-09-06T19:47:43.606Z,100728.34
2023-09-06T19:50:11.663Z,100728.16
2023-09-06T19:52:40.985Z,100744.78
2023-09-06T19:55:09.177Z,100726.94
2023-09-06T19:57:38.340Z,100734.03
2023-09-06T20:00:11.722Z,100739.56
2023-09-06T20:02:44.144Z,100720.22
2023-09-06T20:05:12.427Z,100735.13
2023-09-06T20:07:42.013Z,100735.22
2023-09-06T20:10:12.763Z,100740.63
2023-09-06T20:12:40.769Z,100729.66
2023-09-06T20:15:09.568Z,100739.91
2023-09-06T20:17:37.603Z,100728.34
2023-09-06T20:20:08.240Z,100751.19
2023-09-06T20:22:35.928Z,100756.16
2023-09-06T20:25:06.402Z,100745.44
2023-09-06T20:27:34.264Z,100748.25
2023-09-06T20:30:02.614Z,100743.56
2023-09-06T20:32:30.806Z,100748.81
2023-09-06T20:35:01.598Z,100755.31
2023-09-06T20:37:29.323Z,100739.81
2023-09-06T20:39:59.363Z,100749.59
2023-09-06T20:42:29.156Z,100759.66
2023-09-06T20:44:57.345Z,100759.16
2023-09-06T20:47:26.013Z,100757.59
2023-09-06T20:50:01.590Z,100757.59
2023-09-06T20:52:29.412Z,100758.69
2023-09-06T20:54:57.464Z,100754.97
2023-09-06T20:57:25.225Z,100747.94
2023-09-06T20:59:54.600Z,100759.13
2023-09-06T21:02:23.402Z,100705.00
2023-09-06T21:04:51.284Z,100765.19
2023-09-06T21:07:19.772Z,100760.19
2023-09-06T21:09:47.551Z,100766.78
2023-09-06T21:12:15.548Z,100758.53
2023-09-06T21:14:43.473Z,100760.09
2023-09-06T21:17:12.627Z,100768.31
2023-09-06T21:19:40.843Z,100755.34
2023-09-06T21:22:09.089Z,100750.81
2023-09-06T21:24:37.132Z,100774.91
2023-09-06T21:27:05.892Z,100765.88
2023-09-06T21:29:33.869Z,100761.59
2023-09-06T21:32:01.840Z,100761.59
2023-09-06T21:34:31.077Z,100771.50
2023-09-06T21:36:59.299Z,100767.84
2023-09-06T21:39:27.709Z,100773.22
2023-09-06T21:41:56.626Z,100778.59
2023-09-06T21:44:25.434Z,100761.75
2023-09-06T21:46:53.446Z,100775.69
2023-09-06T21:49:22.057Z,100777.06
2023-09-06T21:51:51.878Z,100775.72
2023-09-06T21:54:21.146Z,100784.03
2023-09-06T21:56:49.261Z,100781.50
2023-09-06T21:59:17.283Z,100784.19
2023-09-06T22:01:45.373Z,100781.84
2023-09-06T22:04:32.102Z,100780.63
2023-09-06T22:07:20.012Z,100770.59
2023-09-06T22:10:07.541Z,100786.38
2023-09-06T22:12:54.717Z,100785.00
2023-09-06T22:15:22.770Z,100791.25
2023-09-06T22:17:51.421Z,100794.06
2023-09-06T22:20:20.343Z,100792.63
2023-09-06T22:22:49.873Z,100803.63
2023-09-06T22:25:17.833Z,100802.16
2023-09-06T22:27:45.659Z,100795.53
2023-09-06T22:30:14.144Z,100795.31
2023-09-06T22:32:42.291Z,100792.63
2023-09-06T22:35:10.706Z,100780.06
2023-09-06T22:37:43.091Z,100801.28
2023-09-06T22:40:13.929Z,100790.06
2023-09-06T22:42:42.279Z,100773.06
2023-09-06T22:45:11.957Z,100776.75
2023-09-06T22:47:39.756Z,100788.94
2023-09-06T22:50:08.535Z,100787.50
2023-09-06T22:52:37.341Z,100786.03
2023-09-06T22:55:05.979Z,100796.03
2023-09-06T22:57:35.522Z,100796.41
2023-09-06T23:00:07.089Z,100792.84
2023-09-06T23:02:35.242Z,100800.78
2023-09-06T23:05:02.991Z,100801.88
2023-09-06T23:07:31.538Z,100802.22
2023-09-06T23:10:00.643Z,100806.16
2023-09-06T23:12:28.555Z,100804.75
2023-09-06T23:14:57.964Z,100799.84
2023-09-06T23:17:32.903Z,100798.63
2023-09-06T23:20:13.505Z,100799.47
2023-09-06T23:22:45.429Z,100809.81
2023-09-06T23:25:15.815Z,100806.63
2023-09-06T23:27:46.733Z,100796.13
2023-09-06T23:30:19.173Z,100797.69
2023-09-06T23:32:51.550Z,100795.84
2023-09-06T23:35:21.561Z,100797.06
2023-09-06T23:37:51.586Z,100802.69
2023-09-06T23:40:23.584Z,100799.34
2023-09-06T23:42:54.384Z,100800.44
2023-09-06T23:45:25.214Z,100801.63
2023-09-06T23:47:57.906Z,100801.84
2023-09-06T23:50:27.097Z,100799.53
2023-09-06T23:52:57.094Z,100796.97
2023-09-06T23:55:28.275Z,100805.34
2023-09-06T23:57:56.360Z,100801.31
